Time,TemperatureF,DewpointF,PressureIn,WindDirection,WindDirectionDegrees,WindSpeedMPH,WindSpeedGustMPH,Humidity,HourlyPrecipIn,Conditions,Clouds,dailyrainin,SoftwareType,DateUTC
2013-01-29 00:03:00,63.1,60.5,30.00,SE,135,3.6,14.3,91,0.00,,SKC,0.00,VWS V14.01,2013-01-29 06:03:00,
2013-01-29 00:08:00,63.1,60.5,29.97,SSE,158,2.9,11.6,91,0.00,,SKC,0.00,VWS V14.01,2013-01-29 06:08:00,
2013-01-29 00:13:00,63.1,60.5,29.97,South,180,8.1,32.2,91,0.00,,SKC,0.00,VWS V14.01,2013-01-29 06:13:00,
2013-01-29 00:18:00,63.1,60.5,29.97,SW,225,2.5,9.8,91,0.00,,SKC,0.00,VWS V14.01,2013-01-29 06:18:00,
2013-01-29 00:23:00,63.3,60.7,30.00,SSE,158,6.3,25.1,91,0.00,,SKC,0.00,VWS V14.01,2013-01-29 06:23:00,
2013-01-29 00:28:00,63.5,60.5,30.00,SSE,158,5.8,23.3,90,0.00,,SKC,0.00,VWS V14.01,2013-01-29 06:28:00,
2013-01-29 00:33:00,63.5,60.5,30.00,WNW,292,2.5,9.8,90,0.00,,SKC,0.00,VWS V14.01,2013-01-29 06:33:00,
2013-01-29 00:38:00,63.5,60.5,29.97,SE,135,2.5,9.8,90,0.00,,SKC,0.00,VWS V14.01,2013-01-29 06:38:00,
2013-01-29 00:43:00,63.5,60.5,29.97,SSE,158,5.6,22.4,90,0.00,,SKC,0.00,VWS V14.01,2013-01-29 06:43:00,
2013-01-29 00:48:00,63.3,60.3,29.97,SSW,202,2.2,9.0,90,0.00,,SKC,0.00,VWS V14.01,2013-01-29 06:48:00,
2013-01-29 00:53:00,63.1,60.2,29.97,SSE,158,2.9,11.6,90,0.00,,SKC,0.00,VWS V14.01,2013-01-29 06:53:00,
2013-01-29 00:58:00,63.1,60.2,29.97,South,180,2.0,8.1,90,0.00,,SKC,0.00,VWS V14.01,2013-01-29 06:58:00,
2013-01-29 01:03:00,63.1,60.2,29.97,South,180,1.3,5.4,90,0.00,,SKC,0.00,VWS V14.01,2013-01-29 07:03:00,
2013-01-29 01:08:00,63.1,60.2,29.97,SSW,202,3.1,12.5,90,0.00,,SKC,0.00,VWS V14.01,2013-01-29 07:08:00,
2013-01-29 01:13:00,63.1,60.2,29.97,South,180,3.1,12.5,90,0.00,,SKC,0.00,VWS V14.01,2013-01-29 07:13:00,
2013-01-29 01:18:00,63.1,60.2,29.97,South,180,3.1,12.5,90,0.00,,SKC,0.00,VWS V14.01,2013-01-29 07:18:00,
2013-01-29 01:23:00,63.3,60.3,29.97,SSE,158,2.7,10.7,90,0.00,,SKC,0.00,VWS V14.01,2013-01-29 07:23:00,
2013-01-29 01:28:00,63.3,60.3,29.97,SW,225,3.6,14.3,90,0.00,,SKC,0.00,VWS V14.01,2013-01-29 07:28:00,
2013-01-29 01:33:00,63.1,60.2,29.97,South,180,4.0,16.1,90,0.00,,SKC,0.00,VWS V14.01,2013-01-29 07:33:00,
2013-01-29 01:38:00,63.1,60.2,29.97,ESE,112,2.2,9.0,90,0.00,,SKC,0.00,VWS V14.01,2013-01-29 07:38:00,
2013-01-29 01:43:00,63.3,60.3,29.97,SSE,158,3.8,15.2,90,0.00,,SKC,0.00,VWS V14.01,2013-01-29 07:43:00,
2013-01-29 01:48:00,63.3,60.3,29.97,South,180,2.5,9.8,90,0.00,,SKC,0.00,VWS V14.01,2013-01-29 07:48:00,
2013-01-29 01:53:00,63.5,60.5,29.97,South,180,6.0,24.2,90,0.00,,SKC,0.00,VWS V14.01,2013-01-29 07:53:00,
2013-01-29 01:58:00,63.5,60.2,29.94,SSE,158,4.3,17.0,89,0.00,,SKC,0.00,VWS V14.01,2013-01-29 07:58:00,
2013-01-29 02:03:00,63.9,60.6,29.94,South,180,1.6,6.3,89,0.00,,SKC,0.00,VWS V14.01,2013-01-29 08:03:00,
2013-01-29 02:08:00,63.9,60.2,29.91,South,180,4.3,17.0,88,0.00,,SKC,0.00,VWS V14.01,2013-01-29 08:08:00,
2013-01-29 02:13:00,63.7,60.1,29.91,South,180,6.0,24.2,88,0.00,,SKC,0.00,VWS V14.01,2013-01-29 08:13:00,
2013-01-29 02:18:00,63.7,60.1,29.91,SW,225,5.4,21.5,88,0.00,,SKC,0.00,VWS V14.01,2013-01-29 08:18:00,
2013-01-29 02:23:00,63.7,60.1,29.94,ESE,112,3.4,13.4,88,0.00,,SKC,0.00,VWS V14.01,2013-01-29 08:23:00,
2013-01-29 02:28:00,63.9,60.2,29.94,SE,135,3.4,13.4,88,0.00,,SKC,0.00,VWS V14.01,2013-01-29 08:28:00,
2013-01-29 02:33:00,63.7,60.1,29.94,ESE,112,4.9,19.7,88,0.00,,SKC,0.00,VWS V14.01,2013-01-29 08:33:00,
2013-01-29 02:38:00,63.5,59.9,29.94,SSE,158,2.0,8.1,88,0.00,,SKC,0.00,VWS V14.01,2013-01-29 08:38:00,
2013-01-29 02:43:00,63.5,60.2,29.94,SSE,158,2.7,10.7,89,0.00,,SKC,0.00,VWS V14.01,2013-01-29 08:43:00,
2013-01-29 02:48:00,63.1,59.8,29.94,SW,225,4.9,19.7,89,0.00,,SKC,0.00,VWS V14.01,2013-01-29 08:48:00,
2013-01-29 02:53:00,63.1,59.8,29.94,SSE,158,4.0,16.1,89,0.00,,SKC,0.00,VWS V14.01,2013-01-29 08:53:00,
2013-01-29 02:58:00,63.1,59.8,29.94,South,180,3.8,15.2,89,0.00,,SKC,0.00,VWS V14.01,2013-01-29 08:58:00,
2013-01-29 03:03:00,63.0,60.0,29.94,SSE,158,1.1,4.5,90,0.00,,SKC,0.00,VWS V14.01,2013-01-29 09:03:00,
2013-01-29 03:08:00,63.0,60.0,29.94,SSW,202,2.0,8.1,90,0.00,,SKC,0.00,VWS V14.01,2013-01-29 09:08:00,
2013-01-29 03:13:00,63.0,60.0,29.94,South,180,3.1,12.5,90,0.00,,SKC,0.00,VWS V14.01,2013-01-29 09:13:00,
2013-01-29 03:18:00,62.8,59.8,29.94,SW,225,3.1,12.5,90,0.00,,SKC,0.00,VWS V14.01,2013-01-29 09:18:00,
2013-01-29 03:23:00,63.0,60.0,29.94,South,180,2.5,9.8,90,0.00,,SKC,0.00,VWS V14.01,2013-01-29 09:23:00,
2013-01-29 03:28:00,62.6,59.6,29.94,SSE,158,3.8,15.2,90,0.00,,SKC,0.00,VWS V14.01,2013-01-29 09:28:00,
2013-01-29 03:33:00,62.6,59.9,29.94,South,180,3.8,15.2,91,0.00,,SKC,0.00,VWS V14.01,2013-01-29 09:33:00,
2013-01-29 03:38:00,62.6,59.9,29.91,NNE,22,2.7,10.7,91,0.00,,SKC,0.00,VWS V14.01,2013-01-29 09:38:00,
2013-01-29 03:43:00,62.6,59.9,29.91,SE,135,2.7,10.7,91,0.00,,SKC,0.00,VWS V14.01,2013-01-29 09:43:00,
2013-01-29 03:48:00,62.6,59.9,29.91,South,180,2.5,9.8,91,0.00,,SKC,0.00,VWS V14.01,2013-01-29 09:48:00,
2013-01-29 03:53:00,62.6,59.9,29.91,South,180,2.5,9.8,91,0.00,,SKC,0.00,VWS V14.01,2013-01-29 09:53:00,
2013-01-29 03:58:00,62.6,59.9,29.91,SSW,202,3.1,12.5,91,0.00,,SKC,0.00,VWS V14.01,2013-01-29 09:58:00,
2013-01-29 04:03:00,62.6,59.9,29.91,SE,135,2.2,9.0,91,0.00,,SKC,0.00,VWS V14.01,2013-01-29 10:03:00,
2013-01-29 04:08:00,62.6,60.2,29.91,South,180,2.0,8.1,92,0.00,,SKC,0.00,VWS V14.01,2013-01-29 10:08:00,
2013-01-29 04:13:00,62.6,60.2,29.91,SSE,158,5.4,21.5,92,0.00,,SKC,0.00,VWS V14.01,2013-01-29 10:13:00,
2013-01-29 04:18:00,62.6,60.2,29.91,South,180,3.1,12.5,92,0.00,,SKC,0.00,VWS V14.01,2013-01-29 10:18:00,
2013-01-29 04:23:00,62.6,60.2,29.91,SE,135,5.6,22.4,92,0.00,,SKC,0.00,VWS V14.01,2013-01-29 10:23:00,
2013-01-29 04:28:00,62.6,60.2,29.91,South,180,4.0,16.1,92,0.00,,SKC,0.00,VWS V14.01,2013-01-29 10:28:00,
2013-01-29 04:33:00,62.8,60.4,29.91,SSW,202,4.0,16.1,92,0.00,,SKC,0.00,VWS V14.01,2013-01-29 10:33:00,
2013-01-29 04:38:00,62.8,60.4,29.88,ESE,112,4.3,17.0,92,0.00,,SKC,0.00,VWS V14.01,2013-01-29 10:38:00,
2013-01-29 04:43:00,63.0,60.6,29.88,SSE,158,3.1,12.5,92,0.00,,SKC,0.00,VWS V14.01,2013-01-29 10:43:00,
2013-01-29 04:48:00,63.0,60.6,29.88,SSE,158,1.6,6.3,92,0.00,,SKC,0.00,VWS V14.01,2013-01-29 10:48:00,
2013-01-29 04:53:00,63.0,60.3,29.91,South,180,2.7,10.7,91,0.00,,SKC,0.00,VWS V14.01,2013-01-29 10:53:00,
2013-01-29 04:58:00,63.1,60.5,29.91,East,90,5.6,22.4,91,0.00,,SKC,0.00,VWS V14.01,2013-01-29 10:58:00,
2013-01-29 05:03:00,63.1,60.5,29.91,SSE,158,1.6,6.3,91,0.00,,SKC,0.00,VWS V14.01,2013-01-29 11:03:00,
2013-01-29 05:08:00,63.3,60.7,29.91,SE,135,3.1,12.5,91,0.00,,SKC,0.00,VWS V14.01,2013-01-29 11:08:00,
2013-01-29 05:13:00,63.3,60.3,29.91,SW,225,1.6,6.3,90,0.00,,SKC,0.00,VWS V14.01,2013-01-29 11:13:00,
2013-01-29 05:18:00,63.5,60.5,29.91,SSE,158,3.4,13.4,90,0.00,,SKC,0.00,VWS V14.01,2013-01-29 11:18:00,
2013-01-29 05:23:00,63.5,60.5,29.91,South,180,3.4,13.4,90,0.00,,SKC,0.00,VWS V14.01,2013-01-29 11:23:00,
2013-01-29 05:28:00,63.5,60.5,29.91,SSE,158,3.8,15.2,90,0.00,,SKC,0.00,VWS V14.01,2013-01-29 11:28:00,
2013-01-29 05:33:00,63.3,60.3,29.91,SSE,158,1.6,6.3,90,0.00,,SKC,0.00,VWS V14.01,2013-01-29 11:33:00,
2013-01-29 05:38:00,63.3,60.3,29.91,SSW,202,2.7,10.7,90,0.00,,SKC,0.00,VWS V14.01,2013-01-29 11:38:00,
2013-01-29 05:43:00,63.3,60.3,29.91,SE,135,2.2,9.0,90,0.00,,SKC,0.00,VWS V14.01,2013-01-29 11:43:00,
2013-01-29 05:48:00,63.3,60.3,29.91,South,180,2.0,8.1,90,0.00,,SKC,0.00,VWS V14.01,2013-01-29 11:48:00,
2013-01-29 05:53:00,63.1,60.2,29.88,SW,225,1.3,5.4,90,0.00,,SKC,0.00,VWS V14.01,2013-01-29 11:53:00,
2013-01-29 05:58:00,63.3,60.7,29.88,South,180,3.6,14.3,91,0.00,,SKC,0.00,VWS V14.01,2013-01-29 11:58:00,
2013-01-29 06:03:00,63.3,60.3,29.88,SSE,158,3.4,13.4,90,0.00,,SKC,0.00,VWS V14.01,2013-01-29 12:03:00,
2013-01-29 06:08:00,63.3,60.3,29.91,ESE,112,1.6,6.3,90,0.00,,SKC,0.00,VWS V14.01,2013-01-29 12:08:00,
2013-01-29 06:13:00,63.3,60.3,29.91,South,180,2.7,10.7,90,0.00,,SKC,0.00,VWS V14.01,2013-01-29 12:13:00,
2013-01-29 06:18:00,63.3,60.3,29.91,SSE,158,4.3,17.0,90,0.00,,SKC,0.00,VWS V14.01,2013-01-29 12:18:00,
2013-01-29 06:23:00,63.3,60.3,29.91,South,180,2.5,9.8,90,0.00,,SKC,0.00,VWS V14.01,2013-01-29 12:23:00,
2013-01-29 06:28:00,63.3,60.3,29.91,WSW,248,2.5,9.8,90,0.00,,SKC,0.00,VWS V14.01,2013-01-29 12:28:00,
2013-01-29 06:33:00,63.5,60.5,29.91,South,180,3.1,12.5,90,0.00,,SKC,0.00,VWS V14.01,2013-01-29 12:33:00,
2013-01-29 06:38:00,63.5,60.2,29.88,SE,135,6.3,25.1,89,0.00,,SKC,0.00,VWS V14.01,2013-01-29 12:38:00,
2013-01-29 06:43:00,63.5,60.2,29.88,SSE,158,2.5,9.8,89,0.00,,SKC,0.00,VWS V14.01,2013-01-29 12:43:00,
2013-01-29 06:48:00,63.5,60.2,29.88,SW,225,2.5,9.8,89,0.00,,SKC,0.00,VWS V14.01,2013-01-29 12:48:00,
2013-01-29 06:53:00,63.5,60.2,29.88,ESE,112,3.1,12.5,89,0.00,,SKC,0.00,VWS V14.01,2013-01-29 12:53:00,
2013-01-29 06:58:00,63.5,60.2,29.88,South,180,3.8,15.2,89,0.00,,SKC,0.00,VWS V14.01,2013-01-29 12:58:00,
2013-01-29 07:03:00,63.5,60.2,29.88,SSE,158,2.0,8.1,89,0.00,,SKC,0.00,VWS V14.01,2013-01-29 13:03:00,
2013-01-29 07:08:00,63.7,60.4,29.91,South,180,2.7,10.7,89,0.00,,SKC,0.00,VWS V14.01,2013-01-29 13:08:00,
2013-01-29 07:13:00,63.9,60.2,29.91,SSE,158,2.0,8.1,88,0.00,,SKC,0.00,VWS V14.01,2013-01-29 13:13:00,
2013-01-29 07:18:00,63.9,60.2,29.91,SE,135,2.7,10.7,88,0.00,,SKC,0.00,VWS V14.01,2013-01-29 13:18:00,
2013-01-29 07:23:00,63.9,60.2,29.88,ESE,112,4.0,16.1,88,0.00,,SKC,0.00,VWS V14.01,2013-01-29 13:23:00,
2013-01-29 07:28:00,63.9,60.2,29.88,SSW,202,5.8,23.3,88,0.00,,SKC,0.00,VWS V14.01,2013-01-29 13:28:00,
2013-01-29 07:33:00,64.0,60.4,29.88,SSW,202,2.5,9.8,88,0.00,,SKC,0.00,VWS V14.01,2013-01-29 13:33:00,
2013-01-29 07:38:00,64.0,60.4,29.88,SSE,158,4.3,17.0,88,0.00,,SKC,0.00,VWS V14.01,2013-01-29 13:38:00,
2013-01-29 07:43:00,64.2,60.6,29.88,South,180,3.1,12.5,88,0.00,,SKC,0.00,VWS V14.01,2013-01-29 13:43:00,
2013-01-29 07:48:00,64.4,60.5,29.88,SSW,202,2.9,11.6,87,0.00,,SKC,0.00,VWS V14.01,2013-01-29 13:48:00,
2013-01-29 07:53:00,64.6,60.3,29.85,SSE,158,5.4,21.5,86,0.00,,SKC,0.00,VWS V14.01,2013-01-29 13:53:00,
2013-01-29 07:58:00,64.6,60.3,29.85,SE,135,7.4,29.5,86,0.00,,SKC,0.00,VWS V14.01,2013-01-29 13:58:00,
2013-01-29 08:03:00,64.9,60.3,29.85,SE,135,3.8,15.2,85,0.00,,SKC,0.00,VWS V14.01,2013-01-29 14:03:00,
2013-01-29 08:08:00,65.1,60.5,29.88,SE,135,4.3,17.0,85,0.00,,SKC,0.00,VWS V14.01,2013-01-29 14:08:00,
2013-01-29 08:13:00,65.1,60.5,29.88,SE,135,3.8,15.2,85,0.00,,SKC,0.00,VWS V14.01,2013-01-29 14:13:00,
2013-01-29 08:18:00,65.1,60.2,29.88,South,180,4.0,16.1,84,0.00,,SKC,0.00,VWS V14.01,2013-01-29 14:18:00,
2013-01-29 08:23:00,65.1,60.2,29.88,South,180,4.3,17.0,84,0.00,,SKC,0.00,VWS V14.01,2013-01-29 14:23:00,
2013-01-29 08:28:00,65.1,60.2,29.88,South,180,4.3,17.0,84,0.00,,SKC,0.00,VWS V14.01,2013-01-29 14:28:00,
2013-01-29 08:33:00,65.1,60.2,29.88,South,180,2.7,10.7,84,0.00,,SKC,0.00,VWS V14.01,2013-01-29 14:33:00,
2013-01-29 08:38:00,65.3,60.0,29.88,South,180,3.1,12.5,83,0.00,,SKC,0.00,VWS V14.01,2013-01-29 14:38:00,
2013-01-29 08:43:00,65.3,60.0,29.88,ESE,112,5.6,22.4,83,0.00,,SKC,0.00,VWS V14.01,2013-01-29 14:43:00,
2013-01-29 08:48:00,65.3,60.0,29.88,South,180,3.8,15.2,83,0.00,,SKC,0.00,VWS V14.01,2013-01-29 14:48:00,
2013-01-29 08:53:00,65.3,60.0,29.88,SSE,158,1.6,6.3,83,0.00,,SKC,0.00,VWS V14.01,2013-01-29 14:53:00,
2013-01-29 08:58:00,65.1,59.8,29.88,SE,135,4.0,16.1,83,0.00,,SKC,0.00,VWS V14.01,2013-01-29 14:58:00,
2013-01-29 09:03:00,65.1,59.8,29.88,SSW,202,2.9,11.6,83,0.00,,SKC,0.00,VWS V14.01,2013-01-29 15:03:00,
2013-01-29 09:08:00,64.9,59.7,29.88,South,180,1.3,5.4,83,0.00,,SKC,0.00,VWS V14.01,2013-01-29 15:08:00,
2013-01-29 09:13:00,64.9,60.0,29.88,SSE,158,7.4,29.5,84,0.00,,SKC,0.00,VWS V14.01,2013-01-29 15:13:00,
2013-01-29 09:18:00,65.3,60.0,29.88,SSW,202,6.0,24.2,83,0.00,,SKC,0.00,VWS V14.01,2013-01-29 15:18:00,
2013-01-29 09:23:00,65.5,59.8,29.88,WSW,248,4.9,19.7,82,0.00,,SKC,0.00,VWS V14.01,2013-01-29 15:23:00,
2013-01-29 09:28:00,65.7,60.0,29.88,SSE,158,6.3,25.1,82,0.00,,SKC,0.00,VWS V14.01,2013-01-29 15:28:00,
2013-01-29 09:33:00,65.7,60.0,29.88,South,180,2.5,9.8,82,0.00,,SKC,0.00,VWS V14.01,2013-01-29 15:33:00,
2013-01-29 09:38:00,65.8,59.8,29.85,SSW,202,4.7,18.8,81,0.00,,SKC,0.00,VWS V14.01,2013-01-29 15:38:00,
2013-01-29 09:43:00,65.8,59.8,29.85,SSE,158,3.6,14.3,81,0.00,,SKC,0.00,VWS V14.01,2013-01-29 15:43:00,
2013-01-29 09:48:00,65.8,59.8,29.85,SW,225,2.5,9.8,81,0.00,,SKC,0.00,VWS V14.01,2013-01-29 15:48:00,
2013-01-29 09:53:00,66.0,60.0,29.85,SW,225,1.6,6.3,81,0.00,,SKC,0.00,VWS V14.01,2013-01-29 15:53:00,
2013-01-29 09:58:00,66.0,60.0,29.85,SSE,158,5.4,21.5,81,0.00,,SKC,0.00,VWS V14.01,2013-01-29 15:58:00,
2013-01-29 10:03:00,66.2,59.9,29.85,SSE,158,7.2,28.6,80,0.00,,SKC,0.00,VWS V14.01,2013-01-29 16:03:00,
2013-01-29 10:08:00,66.4,59.7,29.88,SSW,202,3.1,12.5,79,0.00,,SKC,0.00,VWS V14.01,2013-01-29 16:08:00,
2013-01-29 10:13:00,66.4,59.7,29.88,SE,135,5.4,21.5,79,0.00,,SKC,0.00,VWS V14.01,2013-01-29 16:13:00,
2013-01-29 10:18:00,66.4,59.7,29.88,East,90,5.8,23.3,79,0.00,,SKC,0.00,VWS V14.01,2013-01-29 16:18:00,
2013-01-29 10:23:00,66.2,59.5,29.85,SSE,158,6.0,24.2,79,0.00,,SKC,0.00,VWS V14.01,2013-01-29 16:23:00,
2013-01-29 10:28:00,66.2,59.5,29.85,SSW,202,4.3,17.0,79,0.00,,SKC,0.00,VWS V14.01,2013-01-29 16:28:00,
2013-01-29 10:33:00,66.0,59.7,29.85,SW,225,2.0,8.1,80,0.00,,SKC,0.00,VWS V14.01,2013-01-29 16:33:00,
2013-01-29 10:38:00,65.8,59.8,29.85,South,180,2.0,8.1,81,0.00,,SKC,0.00,VWS V14.01,2013-01-29 16:38:00,
2013-01-29 10:43:00,65.7,59.7,29.85,SSW,202,2.5,9.8,81,0.00,,SKC,0.00,VWS V14.01,2013-01-29 16:43:00,
2013-01-29 10:48:00,65.5,59.8,29.85,SE,135,2.5,9.8,82,0.00,,SKC,0.00,VWS V14.01,2013-01-29 16:48:00,
2013-01-29 10:53:00,65.5,59.8,29.82,South,180,3.4,13.4,82,0.00,,SKC,0.00,VWS V14.01,2013-01-29 16:53:00,
2013-01-29 10:58:00,65.3,59.7,29.82,SW,225,2.7,10.7,82,0.00,,SKC,0.00,VWS V14.01,2013-01-29 16:58:00,
2013-01-29 11:03:00,65.1,59.8,29.82,WSW,248,2.5,9.8,83,0.00,,SKC,0.00,VWS V14.01,2013-01-29 17:03:00,
2013-01-29 11:08:00,65.1,59.8,29.79,SSW,202,4.9,19.7,83,0.00,,SKC,0.00,VWS V14.01,2013-01-29 17:08:00,
2013-01-29 11:13:00,65.1,59.8,29.79,SW,225,2.5,9.8,83,0.00,,SKC,0.00,VWS V14.01,2013-01-29 17:13:00,
2013-01-29 11:18:00,65.1,59.8,29.79,SSE,158,3.4,13.4,83,0.00,,SKC,0.00,VWS V14.01,2013-01-29 17:18:00,
2013-01-29 11:23:00,64.9,59.7,29.82,South,180,2.0,8.1,83,0.00,,SKC,0.00,VWS V14.01,2013-01-29 17:23:00,
2013-01-29 11:28:00,65.1,59.8,29.82,South,180,3.8,15.2,83,0.00,,SKC,0.00,VWS V14.01,2013-01-29 17:28:00,
2013-01-29 11:33:00,65.1,59.8,29.82,SW,225,2.5,9.8,83,0.00,,SKC,0.00,VWS V14.01,2013-01-29 17:33:00,
2013-01-29 11:38:00,65.1,59.8,29.82,SSW,202,2.7,10.7,83,0.00,,SKC,0.00,VWS V14.01,2013-01-29 17:38:00,
2013-01-29 11:43:00,64.9,60.3,29.82,SSE,158,2.7,10.7,85,0.00,,SKC,0.00,VWS V14.01,2013-01-29 17:43:00,
2013-01-29 11:48:00,64.9,60.0,29.82,East,90,3.6,14.3,84,0.00,,SKC,0.00,VWS V14.01,2013-01-29 17:48:00,
2013-01-29 11:53:00,64.8,60.2,29.76,SSE,158,4.0,16.1,85,0.00,,SKC,0.00,VWS V14.01,2013-01-29 17:53:00,
2013-01-29 11:58:00,64.8,59.8,29.76,SSE,158,3.1,12.5,84,0.00,,SKC,0.00,VWS V14.01,2013-01-29 17:58:00,
2013-01-29 12:03:00,64.9,60.3,29.76,SSE,158,2.5,9.8,85,0.00,,SKC,0.00,VWS V14.01,2013-01-29 18:03:00,
2013-01-29 12:08:00,64.9,60.0,29.76,SSE,158,2.2,9.0,84,0.00,,SKC,0.00,VWS V14.01,2013-01-29 18:08:00,
2013-01-29 12:13:00,65.1,60.2,29.76,SSE,158,2.0,8.1,84,0.00,,SKC,0.00,VWS V14.01,2013-01-29 18:13:00,
2013-01-29 12:18:00,65.1,59.8,29.76,SSE,158,1.6,6.3,83,0.00,,SKC,0.00,VWS V14.01,2013-01-29 18:18:00,
2013-01-29 12:23:00,65.1,59.8,29.76,SE,135,3.4,13.4,83,0.00,,SKC,0.00,VWS V14.01,2013-01-29 18:23:00,
2013-01-29 12:28:00,65.3,60.0,29.76,South,180,2.2,9.0,83,0.00,,SKC,0.00,VWS V14.01,2013-01-29 18:28:00,
2013-01-29 12:33:00,65.3,60.0,29.76,SSE,158,4.9,19.7,83,0.00,,SKC,0.00,VWS V14.01,2013-01-29 18:33:00,
2013-01-29 12:38:00,65.3,59.7,29.76,SSE,158,4.3,17.0,82,0.00,,SKC,0.00,VWS V14.01,2013-01-29 18:38:00,
2013-01-29 12:43:00,65.3,59.7,29.76,SSE,158,1.6,6.3,82,0.00,,SKC,0.00,VWS V14.01,2013-01-29 18:43:00,
2013-01-29 12:48:00,65.1,59.8,29.76,South,180,2.0,8.1,83,0.00,,SKC,0.00,VWS V14.01,2013-01-29 18:48:00,
2013-01-29 12:53:00,65.1,59.8,29.74,SSE,158,3.6,14.3,83,0.00,,SKC,0.00,VWS V14.01,2013-01-29 18:53:00,
2013-01-29 12:58:00,65.3,59.7,29.74,SSE,158,3.6,14.3,82,0.00,,SKC,0.00,VWS V14.01,2013-01-29 18:58:00,
2013-01-29 13:03:00,65.1,59.5,29.74,South,180,3.6,14.3,82,0.00,,SKC,0.00,VWS V14.01,2013-01-29 19:03:00,
2013-01-29 13:08:00,65.1,59.5,29.71,South,180,0.9,3.6,82,0.00,,SKC,0.00,VWS V14.01,2013-01-29 19:08:00,
2013-01-29 13:13:00,65.3,59.7,29.71,SE,135,2.5,9.8,82,0.00,,SKC,0.00,VWS V14.01,2013-01-29 19:13:00,
2013-01-29 13:18:00,65.1,59.5,29.71,SSE,158,4.0,16.1,82,0.00,,SKC,0.00,VWS V14.01,2013-01-29 19:18:00,
2013-01-29 13:23:00,65.3,59.7,29.71,ESE,112,2.5,9.8,82,0.00,,SKC,0.00,VWS V14.01,2013-01-29 19:23:00,
2013-01-29 13:28:00,65.7,59.7,29.71,SE,135,8.1,32.2,81,0.00,,SKC,0.00,VWS V14.01,2013-01-29 19:28:00,
2013-01-29 13:33:00,65.8,59.8,29.71,SSW,202,1.6,6.3,81,0.00,,SKC,0.00,VWS V14.01,2013-01-29 19:33:00,
2013-01-29 13:38:00,65.8,59.8,29.68,SSE,158,2.5,9.8,81,0.00,,SKC,0.00,VWS V14.01,2013-01-29 19:38:00,
2013-01-29 13:43:00,65.8,59.5,29.68,SW,225,3.4,13.4,80,0.00,,SKC,0.00,VWS V14.01,2013-01-29 19:43:00,
2013-01-29 13:48:00,66.0,59.7,29.68,WSW,248,4.7,18.8,80,0.00,,SKC,0.00,VWS V14.01,2013-01-29 19:48:00,
2013-01-29 13:53:00,66.2,59.5,29.68,South,180,7.6,30.4,79,0.00,,SKC,0.00,VWS V14.01,2013-01-29 19:53:00,
2013-01-29 13:57:00,66.2,59.5,29.68,SSE,158,4.0,16.1,79,0.00,,SKC,0.00,VWS V14.01,2013-01-29 19:57:00,
2013-01-29 14:02:00,66.2,59.5,29.68,WSW,248,2.9,11.6,79,0.00,,SKC,0.00,VWS V14.01,2013-01-29 20:02:00,
2013-01-29 14:07:00,66.4,59.7,29.68,SSW,202,3.8,15.2,79,0.00,,SKC,0.00,VWS V14.01,2013-01-29 20:07:00,
2013-01-29 14:12:00,66.4,59.3,29.68,South,180,4.0,16.1,78,0.00,,SKC,0.00,VWS V14.01,2013-01-29 20:12:00,
2013-01-29 14:17:00,66.4,59.3,29.68,SE,135,2.9,11.6,78,0.00,,SKC,0.00,VWS V14.01,2013-01-29 20:17:00,
2013-01-29 14:22:00,66.7,59.3,29.65,SSE,158,2.9,11.6,77,0.00,,SKC,0.00,VWS V14.01,2013-01-29 20:22:00,
2013-01-29 14:27:00,66.9,59.5,29.65,ESE,112,4.0,16.1,77,0.00,,SKC,0.00,VWS V14.01,2013-01-29 20:27:00,
2013-01-29 14:32:00,66.9,59.1,29.65,WSW,248,5.8,23.3,76,0.00,,SKC,0.00,VWS V14.01,2013-01-29 20:32:00,
2013-01-29 14:37:00,66.9,59.1,29.65,West,270,3.6,14.3,76,0.00,,SKC,0.00,VWS V14.01,2013-01-29 20:37:00,
2013-01-29 14:42:00,66.9,59.1,29.65,SSE,158,2.0,8.1,76,0.00,,SKC,0.00,VWS V14.01,2013-01-29 20:42:00,
2013-01-29 14:47:00,66.9,59.1,29.65,SSE,158,2.5,9.8,76,0.00,,SKC,0.00,VWS V14.01,2013-01-29 20:47:00,
2013-01-29 14:52:00,67.1,59.3,29.65,South,180,3.8,15.2,76,0.00,,SKC,0.00,VWS V14.01,2013-01-29 20:52:00,
2013-01-29 14:57:00,67.3,59.1,29.65,SE,135,3.8,15.2,75,0.00,,SKC,0.00,VWS V14.01,2013-01-29 20:57:00,
2013-01-29 15:03:00,67.3,59.1,29.65,South,180,2.7,10.7,75,0.00,,SKC,0.00,VWS V14.01,2013-01-29 21:03:00,
2013-01-29 15:08:00,67.3,59.1,29.62,SSW,202,2.9,11.6,75,0.00,,SKC,0.00,VWS V14.01,2013-01-29 21:08:00,
2013-01-29 15:13:00,67.3,59.1,29.62,SSE,158,3.4,13.4,75,0.00,,SKC,0.00,VWS V14.01,2013-01-29 21:13:00,
2013-01-29 15:18:00,67.1,58.9,29.62,SSE,158,2.9,11.6,75,0.00,,SKC,0.00,VWS V14.01,2013-01-29 21:18:00,
2013-01-29 15:23:00,67.3,58.7,29.65,SE,135,6.5,26.0,74,0.00,,SKC,0.00,VWS V14.01,2013-01-29 21:23:00,
2013-01-29 15:28:00,67.3,58.7,29.65,North,0,2.5,9.8,74,0.00,,SKC,0.00,VWS V14.01,2013-01-29 21:28:00,
2013-01-29 15:33:00,67.3,58.7,29.65,SSE,158,5.4,21.5,74,0.00,,SKC,0.00,VWS V14.01,2013-01-29 21:33:00,
2013-01-29 15:38:00,67.3,58.7,29.65,North,0,5.4,21.5,74,0.00,,SKC,0.00,VWS V14.01,2013-01-29 21:38:00,
2013-01-29 15:43:00,67.3,58.7,29.65,SE,135,3.8,15.2,74,0.00,,SKC,0.00,VWS V14.01,2013-01-29 21:43:00,
2013-01-29 15:48:00,67.3,58.7,29.65,SSE,158,2.9,11.6,74,0.00,,SKC,0.00,VWS V14.01,2013-01-29 21:48:00,
2013-01-29 15:53:00,67.3,58.7,29.62,SE,135,2.7,10.7,74,0.00,,SKC,0.00,VWS V14.01,2013-01-29 21:53:00,
2013-01-29 15:58:00,67.3,58.7,29.62,SE,135,6.3,25.1,74,0.00,,SKC,0.00,VWS V14.01,2013-01-29 21:58:00,
2013-01-29 16:03:00,67.3,58.7,29.62,SSE,158,2.7,10.7,74,0.00,,SKC,0.00,VWS V14.01,2013-01-29 22:03:00,
2013-01-29 16:08:00,67.1,58.5,29.62,SSE,158,6.9,27.7,74,0.00,,SKC,0.00,VWS V14.01,2013-01-29 22:08:00,
2013-01-29 16:13:00,67.1,58.9,29.62,SSE,158,3.4,13.4,75,0.00,,SKC,0.00,VWS V14.01,2013-01-29 22:13:00,
2013-01-29 16:18:00,67.1,58.9,29.62,SSE,158,4.3,17.0,75,0.00,,SKC,0.00,VWS V14.01,2013-01-29 22:18:00,
2013-01-29 16:23:00,67.1,58.5,29.59,SSW,202,4.7,18.8,74,0.00,,SKC,0.00,VWS V14.01,2013-01-29 22:23:00,
2013-01-29 16:28:00,67.1,58.5,29.59,SSE,158,2.9,11.6,74,0.00,,SKC,0.00,VWS V14.01,2013-01-29 22:28:00,
2013-01-29 16:33:00,67.3,58.3,29.59,SSE,158,8.5,34.0,73,0.00,,SKC,0.00,VWS V14.01,2013-01-29 22:33:00,
2013-01-29 16:38:00,67.5,58.5,29.59,SSE,158,6.5,26.0,73,0.00,,SKC,0.00,VWS V14.01,2013-01-29 22:38:00,
2013-01-29 16:43:00,67.6,58.3,29.59,SE,135,2.5,9.8,72,0.00,,SKC,0.00,VWS V14.01,2013-01-29 22:43:00,
2013-01-29 16:48:00,67.6,58.3,29.59,SSW,202,2.9,11.6,72,0.00,,SKC,0.00,VWS V14.01,2013-01-29 22:48:00,
2013-01-29 16:53:00,67.8,58.5,29.59,South,180,4.3,17.0,72,0.00,,SKC,0.00,VWS V14.01,2013-01-29 22:53:00,
2013-01-29 16:58:00,66.7,56.3,29.59,SSW,202,6.0,24.2,69,0.00,,SKC,0.00,VWS V14.01,2013-01-29 22:58:00,
2013-01-29 17:03:00,62.4,54.0,29.59,WNW,292,3.6,14.3,74,0.04,,SKC,0.04,VWS V14.01,2013-01-29 23:03:00,
2013-01-29 17:08:00,59.7,54.2,29.65,WSW,248,6.9,27.7,82,0.16,,SKC,0.16,VWS V14.01,2013-01-29 23:08:00,
2013-01-29 17:13:00,58.8,54.7,29.65,West,270,4.3,17.0,86,0.21,,SKC,0.21,VWS V14.01,2013-01-29 23:13:00,
2013-01-29 17:18:00,57.9,54.7,29.65,WSW,248,2.9,11.6,89,0.29,,SKC,0.29,VWS V14.01,2013-01-29 23:18:00,
2013-01-29 17:23:00,57.4,54.8,29.68,West,270,3.4,13.4,91,0.33,,SKC,0.33,VWS V14.01,2013-01-29 23:23:00,
2013-01-29 17:28:00,57.0,55.0,29.68,WSW,248,3.4,13.4,93,0.37,,SKC,0.37,VWS V14.01,2013-01-29 23:28:00,
2013-01-29 17:33:00,56.7,54.7,29.68,NE,45,3.1,12.5,93,0.42,,SKC,0.42,VWS V14.01,2013-01-29 23:33:00,
2013-01-29 17:38:00,56.5,54.8,29.65,WSW,248,2.5,9.8,94,0.42,,SKC,0.42,VWS V14.01,2013-01-29 23:38:00,
2013-01-29 17:43:00,56.3,54.6,29.65,West,270,2.0,8.1,94,0.45,,SKC,0.45,VWS V14.01,2013-01-29 23:43:00,
2013-01-29 17:48:00,56.3,54.9,29.65,SSW,202,2.7,10.7,95,0.45,,SKC,0.45,VWS V14.01,2013-01-29 23:48:00,
2013-01-29 17:53:00,56.3,54.9,29.65,West,270,1.3,5.4,95,0.45,,SKC,0.45,VWS V14.01,2013-01-29 23:53:00,
2013-01-29 17:58:00,56.1,54.7,29.65,NW,315,2.5,9.8,95,0.50,,SKC,0.50,VWS V14.01,2013-01-29 23:58:00,
2013-01-29 18:03:00,56.1,54.7,29.65,NNW,338,2.0,8.1,95,0.50,,SKC,0.54,VWS V14.01,2013-01-30 00:03:00,
2013-01-29 18:08:00,56.1,54.7,29.65,North,0,3.1,12.5,95,0.38,,SKC,0.54,VWS V14.01,2013-01-30 00:08:00,
2013-01-29 18:13:00,56.1,55.0,29.65,NE,45,0.0,0.0,96,0.37,,SKC,0.58,VWS V14.01,2013-01-30 00:13:00,
2013-01-29 18:18:00,56.1,55.0,29.65,North,0,1.1,4.5,96,0.33,,SKC,0.62,VWS V14.01,2013-01-30 00:18:00,
2013-01-29 18:23:00,56.1,55.0,29.62,North,0,2.9,11.6,96,0.33,,SKC,0.62,VWS V14.01,2013-01-30 00:23:00,
2013-01-29 18:28:00,56.1,55.0,29.62,NE,45,2.7,10.7,96,0.29,,SKC,0.66,VWS V14.01,2013-01-30 00:28:00,
2013-01-29 18:33:00,56.1,55.0,29.62,ENE,68,2.7,10.7,96,0.29,,SKC,0.66,VWS V14.01,2013-01-30 00:33:00,
2013-01-29 18:38:00,56.1,55.0,29.59,SSW,202,1.3,5.4,96,0.24,,SKC,0.66,VWS V14.01,2013-01-30 00:38:00,
2013-01-29 18:43:00,55.9,54.8,29.59,NNE,22,2.7,10.7,96,0.21,,SKC,0.66,VWS V14.01,2013-01-30 00:43:00,
2013-01-29 18:48:00,55.9,55.1,29.59,NW,315,1.6,6.3,97,0.21,,SKC,0.66,VWS V14.01,2013-01-30 00:48:00,
2013-01-29 18:53:00,55.9,55.1,29.59,NNW,338,3.8,15.2,97,0.25,,SKC,0.70,VWS V14.01,2013-01-30 00:53:00,
2013-01-29 18:58:00,55.9,55.1,29.59,West,270,0.0,0.0,97,0.20,,SKC,0.70,VWS V14.01,2013-01-30 00:58:00,
2013-01-29 19:03:00,55.9,55.1,29.59,SSW,202,0.9,3.6,97,0.21,,SKC,0.75,VWS V14.01,2013-01-30 01:03:00,
2013-01-29 19:08:00,55.9,55.1,29.59,ENE,68,0.0,0.0,97,0.25,,SKC,0.79,VWS V14.01,2013-01-30 01:08:00,
2013-01-29 19:13:00,55.9,55.1,29.59,ENE,68,0.0,0.0,97,0.29,,SKC,0.83,VWS V14.01,2013-01-30 01:13:00,
2013-01-29 19:18:00,55.9,55.1,29.59,ENE,68,0.0,0.0,97,0.25,,SKC,0.83,VWS V14.01,2013-01-30 01:18:00,
2013-01-29 19:23:00,55.9,55.1,29.65,WNW,292,0.0,0.0,97,0.33,,SKC,0.95,VWS V14.01,2013-01-30 01:23:00,
2013-01-29 19:28:00,55.8,54.9,29.65,NW,315,1.3,5.4,97,0.38,,SKC,1.04,VWS V14.01,2013-01-30 01:28:00,
2013-01-29 19:33:00,55.8,54.9,29.65,West,270,0.9,3.6,97,0.42,,SKC,1.08,VWS V14.01,2013-01-30 01:33:00,
2013-01-29 19:38:00,55.8,54.9,29.65,NNW,338,3.1,12.5,97,0.50,,SKC,1.16,VWS V14.01,2013-01-30 01:38:00,
2013-01-29 19:43:00,55.8,54.9,29.65,North,0,0.0,0.0,97,0.54,,SKC,1.20,VWS V14.01,2013-01-30 01:43:00,
2013-01-29 19:48:00,55.8,54.9,29.65,SSE,158,1.3,5.4,97,0.54,,SKC,1.20,VWS V14.01,2013-01-30 01:48:00,
2013-01-29 19:53:00,55.6,54.8,29.65,SSW,202,0.0,0.0,97,0.54,,SKC,1.24,VWS V14.01,2013-01-30 01:53:00,
2013-01-29 19:58:00,55.6,54.8,29.65,West,270,1.3,5.4,97,0.62,,SKC,1.32,VWS V14.01,2013-01-30 01:58:00,
2013-01-29 20:03:00,55.6,54.8,29.65,WSW,248,2.0,8.1,97,0.57,,SKC,1.32,VWS V14.01,2013-01-30 02:03:00,
2013-01-29 20:08:00,55.6,54.8,29.65,NW,315,2.7,10.7,97,0.58,,SKC,1.37,VWS V14.01,2013-01-30 02:08:00,
2013-01-29 20:13:00,55.6,54.8,29.65,NW,315,2.9,11.6,97,0.54,,SKC,1.37,VWS V14.01,2013-01-30 02:13:00,
2013-01-29 20:18:00,55.4,54.6,29.65,North,0,2.9,11.6,97,0.58,,SKC,1.41,VWS V14.01,2013-01-30 02:18:00,
2013-01-29 20:23:00,55.4,54.6,29.65,WSW,248,4.7,18.8,97,0.50,,SKC,1.41,VWS V14.01,2013-01-30 02:23:00,
2013-01-29 20:28:00,55.4,54.6,29.65,NW,315,2.0,8.1,97,0.37,,SKC,1.41,VWS V14.01,2013-01-30 02:28:00,
2013-01-29 20:33:00,55.4,54.6,29.65,West,270,2.7,10.7,97,0.37,,SKC,1.45,VWS V14.01,2013-01-30 02:33:00,
2013-01-29 20:38:00,55.2,54.7,29.65,SW,225,1.6,6.3,98,0.29,,SKC,1.45,VWS V14.01,2013-01-30 02:38:00,
2013-01-29 20:43:00,55.2,54.7,29.65,WNW,292,3.1,12.5,98,0.29,,SKC,1.49,VWS V14.01,2013-01-30 02:43:00,
2013-01-29 20:48:00,55.2,54.7,29.65,NNW,338,0.0,0.0,98,0.29,,SKC,1.49,VWS V14.01,2013-01-30 02:48:00,
2013-01-29 20:53:00,55.0,54.5,29.65,WNW,292,0.0,0.0,98,0.25,,SKC,1.49,VWS V14.01,2013-01-30 02:53:00,
2013-01-29 20:58:00,55.0,54.5,29.65,West,270,2.2,9.0,98,0.25,,SKC,1.49,VWS V14.01,2013-01-30 02:58:00,
2013-01-29 21:03:00,55.0,54.5,29.65,WSW,248,1.1,4.5,98,0.21,,SKC,1.53,VWS V14.01,2013-01-30 03:03:00,
2013-01-29 21:08:00,55.0,54.5,29.65,NNE,22,0.0,0.0,98,0.21,,SKC,1.58,VWS V14.01,2013-01-30 03:08:00,
2013-01-29 21:13:00,54.9,54.3,29.65,NE,45,1.1,4.5,98,0.21,,SKC,1.58,VWS V14.01,2013-01-30 03:13:00,
2013-01-29 21:18:00,54.9,54.3,29.65,West,270,0.0,0.0,98,0.21,,SKC,1.62,VWS V14.01,2013-01-30 03:18:00,
2013-01-29 21:23:00,54.9,54.3,29.62,West,270,0.0,0.0,98,0.21,,SKC,1.62,VWS V14.01,2013-01-30 03:23:00,
2013-01-29 21:28:00,54.7,54.1,29.62,NW,315,0.0,0.0,98,0.21,,SKC,1.62,VWS V14.01,2013-01-30 03:28:00,
2013-01-29 21:33:00,54.7,54.1,29.62,NNE,22,0.0,0.0,98,0.17,,SKC,1.62,VWS V14.01,2013-01-30 03:33:00,
2013-01-29 21:38:00,54.7,54.1,29.62,West,270,0.0,0.0,98,0.17,,SKC,1.62,VWS V14.01,2013-01-30 03:38:00,
2013-01-29 21:43:00,54.7,54.1,29.62,West,270,2.2,9.0,98,0.17,,SKC,1.66,VWS V14.01,2013-01-30 03:43:00,
2013-01-29 21:48:00,54.5,54.0,29.62,WNW,292,0.0,0.0,98,0.17,,SKC,1.66,VWS V14.01,2013-01-30 03:48:00,
2013-01-29 21:53:00,54.5,54.0,29.62,North,0,0.0,0.0,98,0.17,,SKC,1.66,VWS V14.01,2013-01-30 03:53:00,
2013-01-29 21:58:00,54.3,53.8,29.62,North,0,0.0,0.0,98,0.17,,SKC,1.66,VWS V14.01,2013-01-30 03:58:00,
2013-01-29 22:03:00,54.3,53.8,29.62,NW,315,0.0,0.0,98,0.13,,SKC,1.66,VWS V14.01,2013-01-30 04:03:00,
2013-01-29 22:08:00,54.3,53.8,29.62,North,0,0.0,0.0,98,0.12,,SKC,1.70,VWS V14.01,2013-01-30 04:08:00,
2013-01-29 22:13:00,54.1,53.6,29.62,North,0,0.0,0.0,98,0.12,,SKC,1.70,VWS V14.01,2013-01-30 04:13:00,
2013-01-29 22:18:00,54.1,53.6,29.62,North,0,0.0,0.0,98,0.08,,SKC,1.70,VWS V14.01,2013-01-30 04:18:00,
2013-01-29 22:23:00,54.1,53.6,29.59,NNE,22,0.9,3.6,98,0.08,,SKC,1.70,VWS V14.01,2013-01-30 04:23:00,
2013-01-29 22:28:00,54.0,53.4,29.59,NNE,22,0.0,0.0,98,0.08,,SKC,1.70,VWS V14.01,2013-01-30 04:28:00,
2013-01-29 22:33:00,53.8,53.2,29.59,NNE,22,0.0,0.0,98,0.08,,SKC,1.70,VWS V14.01,2013-01-30 04:33:00,
2013-01-29 22:38:00,53.8,53.2,29.59,NE,45,0.9,3.6,98,0.08,,SKC,1.70,VWS V14.01,2013-01-30 04:38:00,
2013-01-29 22:43:00,53.8,53.2,29.59,NE,45,0.0,0.0,98,0.08,,SKC,1.74,VWS V14.01,2013-01-30 04:43:00,
2013-01-29 22:48:00,53.6,53.0,29.59,NE,45,0.0,0.0,98,0.08,,SKC,1.74,VWS V14.01,2013-01-30 04:48:00,
2013-01-29 22:53:00,53.6,53.0,29.56,NE,45,0.0,0.0,98,0.08,,SKC,1.74,VWS V14.01,2013-01-30 04:53:00,
2013-01-29 22:58:00,53.8,53.2,29.56,NNE,22,0.0,0.0,98,0.08,,SKC,1.74,VWS V14.01,2013-01-30 04:58:00,
2013-01-29 23:00:00,53.8,53.2,29.56,East,90,0.0,0.0,98,0.08,,SKC,1.74,VWS V14.01,2013-01-30 05:00:00,
2013-01-29 23:01:00,53.8,53.2,29.56,ENE,68,0.0,0.0,98,0.08,,SKC,1.74,VWS V14.01,2013-01-30 05:01:00,
2013-01-29 23:02:00,53.8,53.2,29.56,ENE,68,0.9,3.6,98,0.08,,SKC,1.74,VWS V14.01,2013-01-30 05:02:00,
2013-01-29 23:07:00,53.8,53.2,29.56,East,90,0.0,0.0,98,0.08,,SKC,1.74,VWS V14.01,2013-01-30 05:07:00,
2013-01-29 23:12:00,53.8,53.2,29.56,East,90,0.0,0.0,98,0.04,,SKC,1.74,VWS V14.01,2013-01-30 05:12:00,
2013-01-29 23:17:00,53.8,53.2,29.56,SSE,158,0.0,0.0,98,0.04,,SKC,1.74,VWS V14.01,2013-01-30 05:17:00,
2013-01-29 23:22:00,53.8,53.2,29.59,SSE,158,1.6,6.3,98,0.04,,SKC,1.74,VWS V14.01,2013-01-30 05:22:00,
2013-01-29 23:27:00,53.8,53.2,29.59,ESE,112,1.1,4.5,98,0.04,,SKC,1.74,VWS V14.01,2013-01-30 05:27:00,
2013-01-29 23:32:00,53.8,53.2,29.59,SE,135,1.3,5.4,98,0.04,,SKC,1.74,VWS V14.01,2013-01-30 05:32:00,
2013-01-29 23:37:00,53.6,53.0,29.59,SSE,158,0.9,3.6,98,0.04,,SKC,1.74,VWS V14.01,2013-01-30 05:37:00,
2013-01-29 23:42:00,53.6,53.0,29.59,SSE,158,0.0,0.0,98,0.00,,SKC,1.74,VWS V14.01,2013-01-30 05:42:00,
2013-01-29 23:47:00,53.4,52.9,29.59,ESE,112,1.1,4.5,98,0.00,,SKC,1.74,VWS V14.01,2013-01-30 05:47:00,
2013-01-29 23:52:00,53.4,52.9,29.56,SE,135,1.6,6.3,98,0.00,,SKC,1.74,VWS V14.01,2013-01-30 05:52:00,
2013-01-29 23:57:00,53.2,52.7,29.56,SE,135,2.0,8.1,98,0.00,,SKC,0.00,VWS V14.01,2013-01-30 05:57:00,